Time;durP1;ratioP1;P1;durP2;ratioP2;P2;SDS_P1;SDS_P2;PMS_P1;PMS_P2;Temp;Humidity;BMP_temperature;BMP_pressure;BME280_temperature;BME280_humidity;BME280_pressure;Samples;Min_cycle;Max_cycle;Signal;HPM_P1;HPM_P2
2021/06/29 00:01:11;;;;;;;;;;;;;;;25.74;100.00;98688.00;5027453;28;20020;-69
2021/06/29 00:03:37;;;;;;;;;;;;;;;25.72;100.00;98684.66;5009129;28;19924;-68
2021/06/29 00:06:02;;;;;;;;;;;;;;;25.72;100.00;98682.03;5027434;28;20375;-68
2021/06/29 00:08:28;;;;;;;;;;;;;;;25.78;100.00;98691.97;5009803;28;20023;-68
2021/06/29 00:10:53;;;;;;;;;;;;;;;25.80;100.00;98687.38;5008801;28;19925;-68
2021/06/29 00:13:20;;;;;;;;;;;;;;;25.52;89.08;98694.59;5026922;28;20007;-68
2021/06/29 00:15:45;;;;;;;;;;;;;;;25.38;100.00;98688.00;5009606;28;19925;-69
2021/06/29 00:18:11;;;;;;;;;;;;;;;25.18;100.00;98686.47;5009575;28;20397;-69
2021/06/29 00:20:37;;;;;;;;;;;;;;;25.15;100.00;98684.16;5008356;28;20386;-69
2021/06/29 00:23:02;;;;;;;;;;;;;;;25.25;100.00;98682.31;4992884;28;20275;-68
2021/06/29 00:25:28;;;;;;;;;;;;;;;25.53;100.00;98679.59;5008857;28;19920;-69
2021/06/29 00:27:53;;;;;;;;;;;;;;;25.58;100.00;98679.94;5025802;28;19963;-69
2021/06/29 00:30:19;;;;;;;;;;;;;;;24.96;100.00;98683.31;5026303;28;19921;-69
2021/06/29 00:32:44;;;;;;;;;;;;;;;25.18;96.25;98675.94;5008484;28;19974;-69
2021/06/29 00:35:10;;;;;;;;;;;;;;;25.12;100.00;98676.56;5008930;28;19917;-70
2021/06/29 00:37:36;;;;;;;;;;;;;;;25.28;100.00;98671.47;5008664;28;20023;-69
2021/06/29 00:40:04;;;;;;;;;;;;;;;24.84;97.73;98673.97;5009235;28;20070;-69
2021/06/29 00:42:30;;;;;;;;;;;;;;;25.20;100.00;98666.97;5023468;28;19925;-70
2021/06/29 00:44:55;;;;;;;;;;;;;;;24.30;100.00;98673.78;5025095;28;19925;-70
2021/06/29 00:47:21;;;;;;;;;;;;;;;24.53;100.00;98676.06;5006380;28;20484;-70
2021/06/29 00:49:46;;;;;;;;;;;;;;;23.70;100.00;98668.78;5024374;28;20578;-70
2021/06/29 00:52:12;;;;;;;;;;;;;;;23.53;100.00;98674.75;5024057;28;19995;-70
2021/06/29 00:54:38;;;;;;;;;;;;;;;23.41;100.00;98676.69;5024455;28;20394;-69
2021/06/29 00:57:04;;;;;;;;;;;;;;;23.22;100.00;98674.91;5006825;28;19917;-69
2021/06/29 00:59:31;;;;;;;;;;;;;;;23.29;100.00;98665.50;5023767;28;20059;-69
2021/06/29 01:01:56;;;;;;;;;;;;;;;23.57;100.00;98673.50;5024067;28;19921;-69
2021/06/29 01:04:22;;;;;;;;;;;;;;;23.03;100.00;98674.88;5005798;28;19944;-69
2021/06/29 01:06:47;;;;;;;;;;;;;;;;;;5006353;28;19948;-69
2021/06/29 01:09:13;;;;;;;;;;;;;;;23.25;100.00;98674.63;5023258;28;19945;-69
2021/06/29 01:11:38;;;;;;;;;;;;;;;22.84;100.00;98681.72;5006800;28;20306;-69
2021/06/29 01:14:11;;;;;;;;;;;;;;;23.24;100.00;98678.22;5023178;28;20338;-70
2021/06/29 01:16:36;;;;;;;;;;;;;;;23.78;100.00;98674.19;5006774;28;19921;-69
2021/06/29 01:19:02;;;;;;;;;;;;;;;23.16;100.00;98680.69;5006428;28;20329;-69
2021/06/29 01:21:30;;;;;;;;;;;;;;;23.80;100.00;98674.06;5025708;28;19960;-70
2021/06/29 01:23:57;;;;;;;;;;;;;;;23.74;100.00;98680.72;5008577;28;19925;-69
2021/06/29 01:26:25;;;;;;;;;;;;;;;24.06;100.00;98682.16;5026227;28;19925;-71
2021/06/29 01:31:22;;;;;;;;;;;;;;;24.44;100.00;98683.00;5009771;28;19913;-70
2021/06/29 01:33:48;;;;;;;;;;;;;;;24.30;100.00;98686.94;5009236;28;19924;-70
2021/06/29 01:36:14;;;;;;;;;;;;;;;24.14;100.00;98687.53;5009011;28;19921;-69
2021/06/29 01:38:39;;;;;;;;;;;;;;;24.57;100.00;98682.72;5026247;28;19927;-70
2021/06/29 01:41:05;;;;;;;;;;;;;;;24.54;100.00;98683.84;5008385;28;20363;-70
2021/06/29 01:43:35;;;;;;;;;;;;;;;24.68;100.00;98689.56;5009569;28;19917;-69
2021/06/29 01:46:00;;;;;;;;;;;;;;;24.31;100.00;98688.56;5025009;28;19924;-70
2021/06/29 01:48:26;;;;;;;;;;;;;;;24.11;100.00;98682.56;5026271;28;19924;-70
2021/06/29 01:50:51;;;;;;;;;;;;;;;24.00;100.00;98688.00;5026752;28;19917;-71
2021/06/29 01:53:17;;;;;;;;;;;;;;;24.46;100.00;98691.59;5009124;28;19921;-71
2021/06/29 01:55:42;;;;;;;;;;;;;;;24.62;100.00;98683.09;5007979;28;19921;-70
2021/06/29 01:58:08;;;;;;;;;;;;;;;24.78;100.00;98678.00;5007552;28;19922;-71
2021/06/29 02:00:33;;;;;;;;;;;;;;;24.65;100.00;98674.06;5008168;28;19924;-69
2021/06/29 02:02:59;;;;;;;;;;;;;;;24.57;100.00;98675.63;5006992;28;19921;-71
2021/06/29 02:05:24;;;;;;;;;;;;;;;24.45;100.00;98674.16;5025835;28;19917;-70
2021/06/29 02:07:50;;;;;;;;;;;;;;;24.44;100.00;98675.09;5025894;28;19913;-70
2021/06/29 02:10:16;;;;;;;;;;;;;;;24.30;100.00;98675.59;5008117;28;20012;-70
2021/06/29 02:12:42;;;;;;;;;;;;;;;23.59;100.00;98680.28;5008634;28;20387;-69
2021/06/29 02:15:08;;;;;;;;;;;;;;;23.09;100.00;98672.53;5008221;28;20032;-71
2021/06/29 02:17:33;;;;;;;;;;;;;;;22.58;100.00;98676.13;5027797;28;20350;-70
2021/06/29 02:19:59;;;;;;;;;;;;;;;23.01;100.00;98669.75;5028772;28;19920;-70
2021/06/29 02:22:24;;;;;;;;;;;;;;;22.68;100.00;98676.16;4996293;28;19956;-71
2021/06/29 02:24:50;;;;;;;;;;;;;;;22.71;100.00;98675.88;5027682;28;19924;-70
2021/06/29 02:27:15;;;;;;;;;;;;;;;22.22;100.00;98678.31;5012325;28;19917;-70
2021/06/29 02:29:40;;;;;;;;;;;;;;;21.89;100.00;98674.94;5029038;28;19917;-70
2021/06/29 02:32:06;;;;;;;;;;;;;;;22.12;100.00;98664.28;5028668;28;19921;-70
2021/06/29 02:34:31;;;;;;;;;;;;;;;21.92;100.00;98658.13;5028752;28;19917;-70
2021/06/29 02:36:57;;;;;;;;;;;;;;;22.01;100.00;98659.97;5028902;28;20392;-69
2021/06/29 02:39:22;;;;;;;;;;;;;;;22.00;100.00;98654.84;5029091;28;20016;-70
2021/06/29 02:41:48;;;;;;;;;;;;;;;21.99;100.00;98653.22;5030484;28;20420;-69
2021/06/29 02:44:14;;;;;;;;;;;;;;;22.00;100.00;98666.16;5011059;28;19917;-69
2021/06/29 02:46:39;;;;;;;;;;;;;;;21.70;100.00;98664.34;5028374;28;19917;-71
2021/06/29 02:49:05;;;;;;;;;;;;;;;22.10;100.00;98650.47;5011262;28;19913;-69
2021/06/29 02:51:30;;;;;;;;;;;;;;;21.79;100.00;98655.69;5011720;28;19921;-69
2021/06/29 02:53:56;;;;;;;;;;;;;;;22.27;100.00;98641.22;5010179;28;19928;-70
2021/06/29 02:56:40;;;;;;;;;;;;;;;21.92;100.00;98642.41;5029885;28;19924;-70
2021/06/29 02:59:15;;;;;;;;;;;;;;;21.74;100.00;98638.72;5014086;28;19923;-70
2021/06/29 03:01:41;;;;;;;;;;;;;;;21.84;100.00;98643.03;5012402;28;20455;-70
2021/06/29 03:04:06;;;;;;;;;;;;;;;21.86;100.00;98648.16;5029931;28;19917;-70
2021/06/29 03:06:32;;;;;;;;;;;;;;;21.76;100.00;98640.25;5030265;28;19956;-70
2021/06/29 03:08:58;;;;;;;;;;;;;;;21.83;100.00;98635.31;5011856;28;20002;-71
2021/06/29 03:11:23;;;;;;;;;;;;;;;21.72;100.00;98637.03;5011214;28;19933;-70
2021/06/29 03:13:49;;;;;;;;;;;;;;;21.75;100.00;98633.31;5029660;28;20429;-70
2021/06/29 03:16:14;;;;;;;;;;;;;;;21.71;100.00;98629.28;5011152;28;19974;-70
2021/06/29 03:18:40;;;;;;;;;;;;;;;21.57;100.00;98633.06;5021282;28;20563;-71
2021/06/29 03:21:07;;;;;;;;;;;;;;;21.49;100.00;98625.03;5029264;28;19968;-71
2021/06/29 03:23:33;;;;;;;;;;;;;;;21.13;100.00;98624.44;5028903;28;19921;-71
2021/06/29 03:25:58;;;;;;;;;;;;;;;21.47;100.00;98627.78;5029060;28;19913;-71
2021/06/29 03:28:23;;;;;;;;;;;;;;;21.80;100.00;98619.84;5011414;28;20003;-71
2021/06/29 03:30:50;;;;;;;;;;;;;;;21.65;100.00;98619.34;5029336;28;20821;-71
2021/06/29 03:33:15;;;;;;;;;;;;;;;22.01;100.00;98618.03;5012254;28;19917;-71
2021/06/29 03:35:41;;;;;;;;;;;;;;;21.70;100.00;98620.59;5011934;28;19940;-71
2021/06/29 03:38:06;;;;;;;;;;;;;;;21.65;100.00;98620.16;5030536;28;19920;-71
2021/06/29 03:40:31;;;;;;;;;;;;;;;21.51;100.00;98620.50;5007287;28;19965;-71
2021/06/29 03:42:57;;;;;;;;;;;;;;;21.36;100.00;98619.13;5009658;28;20008;-71
2021/06/29 03:45:22;;;;;;;;;;;;;;;21.00;100.00;98618.53;5030842;28;20070;-71
2021/06/29 03:47:48;;;;;;;;;;;;;;;21.51;100.00;98607.41;5031107;28;19920;-71
2021/06/29 03:50:13;;;;;;;;;;;;;;;21.46;100.00;98622.66;5031013;28;19960;-71
2021/06/29 03:52:38;;;;;;;;;;;;;;;21.50;100.00;98627.50;5025620;28;20014;-71
2021/06/29 03:55:05;;;;;;;;;;;;;;;21.56;100.00;98622.75;5025506;28;19916;-71
2021/06/29 03:57:37;;;;;;;;;;;;;;;21.58;100.00;98618.19;5007748;28;19971;-71
2021/06/29 04:00:06;;;;;;;;;;;;;;;21.80;100.00;98619.84;5023860;28;19921;-71
2021/06/29 04:02:33;;;;;;;;;;;;;;;21.66;100.00;98621.81;5006310;28;19970;-71
2021/06/29 04:04:58;;;;;;;;;;;;;;;21.76;100.00;98616.66;5024016;28;20295;-71
2021/06/29 04:07:27;;;;;;;;;;;;;;;22.18;100.00;98615.75;5010639;28;19917;-71
2021/06/29 04:09:55;;;;;;;;;;;;;;;21.85;100.00;98615.03;5025001;28;19921;-71
2021/06/29 04:12:20;;;;;;;;;;;;;;;22.06;100.00;98610.59;5027729;28;20536;-71
2021/06/29 04:14:53;;;;;;;;;;;;;;;21.83;100.00;98609.09;5028970;28;19920;-71
2021/06/29 04:17:19;;;;;;;;;;;;;;;21.80;100.00;98609.34;5028411;28;19959;-71
2021/06/29 04:19:44;;;;;;;;;;;;;;;21.49;100.00;98598.84;5028172;28;20370;-70
2021/06/29 04:22:11;;;;;;;;;;;;;;;21.86;100.00;98593.09;5009692;28;19940;-71
2021/06/29 04:24:36;;;;;;;;;;;;;;;21.83;100.00;98588.97;5022786;28;19944;-71
2021/06/29 04:27:02;;;;;;;;;;;;;;;21.79;100.00;98573.63;5025576;28;19925;-71
2021/06/29 04:29:28;;;;;;;;;;;;;;;21.66;100.00;98572.03;4987379;28;19917;-71
2021/06/29 04:31:53;;;;;;;;;;;;;;;21.97;100.00;98574.66;5023267;28;19979;-71
2021/06/29 04:34:18;;;;;;;;;;;;;;;21.31;100.00;98574.97;5022197;28;19920;-71
2021/06/29 04:36:44;;;;;;;;;;;;;;;21.93;100.00;98575.88;5023338;28;19914;-71
2021/06/29 04:39:11;;;;;;;;;;;;;;;21.47;100.00;98577.16;4988120;28;19955;-71
2021/06/29 04:41:36;;;;;;;;;;;;;;;21.63;100.00;98569.66;5005316;28;20507;-70
2021/06/29 04:44:01;;;;;;;;;;;;;;;21.87;100.00;98571.16;5005875;28;19917;-71
2021/06/29 04:46:27;;;;;;;;;;;;;;;21.58;100.00;98569.25;5024901;28;19927;-71
2021/06/29 04:48:52;;;;;;;;;;;;;;;21.95;100.00;98563.47;5025754;28;19917;-71
2021/06/29 04:51:17;;;;;;;;;;;;;;;22.05;100.00;98556.47;5023822;28;19913;-71
2021/06/29 04:53:43;;;;;;;;;;;;;;;22.08;100.00;98558.84;5022071;28;19917;-71
2021/06/29 04:56:17;;;;;;;;;;;;;;;22.05;100.00;98564.34;5012062;28;20263;-70
2021/06/29 04:58:46;;;;;;;;;;;;;;;22.65;100.00;98560.91;5024499;28;20424;-71
2021/06/29 05:01:12;;;;;;;;;;;;;;;22.14;100.00;98558.28;5006160;28;19921;-71
2021/06/29 05:03:38;;;;;;;;;;;;;;;21.79;100.00;98563.13;5006359;28;19917;-71
2021/06/29 05:06:03;;;;;;;;;;;;;;;22.32;100.00;98553.25;5007982;28;20327;-71
2021/06/29 05:08:29;;;;;;;;;;;;;;;22.19;100.00;98543.94;5026810;28;19960;-70
2021/06/29 05:10:54;;;;;;;;;;;;;;;22.39;100.00;98545.69;5025655;28;20015;-70
2021/06/29 05:13:19;;;;;;;;;;;;;;;22.46;100.00;98546.78;5025319;28;19917;-69
2021/06/29 05:15:45;;;;;;;;;;;;;;;22.50;100.00;98545.56;5025567;28;19928;-69
2021/06/29 05:18:10;;;;;;;;;;;;;;;22.55;100.00;98535.47;5006590;28;19967;-69
2021/06/29 05:20:36;;;;;;;;;;;;;;;22.31;100.00;98537.69;5006934;28;19921;-69
2021/06/29 05:23:01;;;;;;;;;;;;;;;22.33;100.00;98541.81;5024721;28;19924;-69
2021/06/29 05:25:28;;;;;;;;;;;;;;;22.04;100.00;98546.13;5025903;28;19967;-69
2021/06/29 05:27:53;;;;;;;;;;;;;;;22.38;100.00;98549.28;5008576;28;19921;-69
2021/06/29 05:30:19;;;;;;;;;;;;;;;22.44;100.00;98546.13;5008677;28;20430;-69
2021/06/29 05:32:44;;;;;;;;;;;;;;;22.44;100.00;98554.00;5025252;28;20027;-69
2021/06/29 05:35:10;;;;;;;;;;;;;;;22.25;100.00;98551.31;5008911;28;19952;-69
2021/06/29 05:37:35;;;;;;;;;;;;;;;22.57;100.00;98560.78;5025562;28;20322;-69
2021/06/29 05:40:01;;;;;;;;;;;;;;;22.25;100.00;98559.19;5025897;28;19918;-69
2021/06/29 05:42:26;;;;;;;;;;;;;;;22.75;100.00;98557.34;5008119;28;20545;-69
2021/06/29 05:44:51;;;;;;;;;;;;;;;23.14;100.00;98553.91;5026325;28;19937;-69
2021/06/29 05:47:21;;;;;;;;;;;;;;;22.85;100.00;98559.97;5026198;28;19928;-69
2021/06/29 05:49:46;;;;;;;;;;;;;;;22.78;100.00;98558.84;5027087;28;20351;-69
2021/06/29 05:52:12;;;;;;;;;;;;;;;23.23;100.00;98560.94;5029141;28;19948;-69
2021/06/29 05:54:37;;;;;;;;;;;;;;;22.80;100.00;98564.78;5011939;28;19917;-69
2021/06/29 05:57:02;;;;;;;;;;;;;;;22.65;100.00;98568.78;5012496;28;20486;-69
2021/06/29 05:59:28;;;;;;;;;;;;;;;23.47;100.00;98567.53;5012956;28;19920;-69
2021/06/29 06:01:54;;;;;;;;;;;;;;;23.56;100.00;98569.31;5010210;28;19925;-69
2021/06/29 06:04:20;;;;;;;;;;;;;;;23.41;100.00;98563.69;5012366;28;20291;-69
2021/06/29 06:06:45;;;;;;;;;;;;;;;23.66;100.00;98572.75;5012925;28;19924;-69
2021/06/29 06:09:11;;;;;;;;;;;;;;;23.53;100.00;98573.06;5029926;28;19920;-69
2021/06/29 06:11:36;;;;;;;;;;;;;;;23.56;100.00;98577.19;5029803;28;19925;-69
2021/06/29 06:14:02;;;;;;;;;;;;;;;24.01;100.00;98572.09;5011494;28;19917;-69
2021/06/29 06:16:27;;;;;;;;;;;;;;;23.98;100.00;98569.75;5012626;28;20356;-69
2021/06/29 06:18:52;;;;;;;;;;;;;;;23.84;100.00;98570.25;5011764;28;20788;-69
2021/06/29 06:21:18;;;;;;;;;;;;;;;23.82;100.00;98579.25;5029171;28;19932;-69
2021/06/29 06:23:43;;;;;;;;;;;;;;;24.30;100.00;98581.66;5010298;28;19960;-68
2021/06/29 06:26:08;;;;;;;;;;;;;;;24.19;100.00;98569.53;5011868;28;19919;-69
2021/06/29 06:28:34;;;;;;;;;;;;;;;24.38;100.00;98568.63;5010976;28;19920;-69
2021/06/29 06:30:59;;;;;;;;;;;;;;;24.06;100.00;98574.28;5029994;28;19913;-69
2021/06/29 06:33:24;;;;;;;;;;;;;;;23.78;100.00;98573.44;5011136;28;20413;-69
2021/06/29 06:35:50;;;;;;;;;;;;;;;23.78;100.00;98578.69;5012118;28;19920;-68
2021/06/29 06:38:15;;;;;;;;;;;;;;;24.15;100.00;98583.13;5029054;28;20621;-68
2021/06/29 06:40:41;;;;;;;;;;;;;;;23.80;100.00;98577.59;5013815;28;20472;-69
2021/06/29 06:43:06;;;;;;;;;;;;;;;23.50;100.00;98583.03;5011577;28;19925;-69
2021/06/29 06:45:31;;;;;;;;;;;;;;;23.59;100.00;98590.06;5029881;28;19928;-69
2021/06/29 06:47:57;;;;;;;;;;;;;;;23.89;100.00;98578.53;5029144;28;20375;-69
2021/06/29 06:50:23;;;;;;;;;;;;;;;23.69;100.00;98588.25;5028706;28;20366;-69
2021/06/29 06:52:49;;;;;;;;;;;;;;;24.02;100.00;98588.72;5028177;28;19920;-69
2021/06/29 06:55:14;;;;;;;;;;;;;;;23.36;100.00;98586.94;5011402;28;19917;-69
2021/06/29 06:57:41;;;;;;;;;;;;;;;24.11;100.00;98587.03;5028179;28;20291;-69
2021/06/29 07:00:07;;;;;;;;;;;;;;;24.45;100.00;98589.06;5011252;28;20012;-69
2021/06/29 07:02:33;;;;;;;;;;;;;;;23.89;100.00;98589.03;5026899;28;20681;-69
2021/06/29 07:04:58;;;;;;;;;;;;;;;24.12;100.00;98594.75;5010680;28;19953;-68
2021/06/29 07:07:23;;;;;;;;;;;;;;;24.03;100.00;98587.75;5028131;28;19921;-69
2021/06/29 07:09:49;;;;;;;;;;;;;;;24.42;100.00;98588.38;5027570;28;20375;-69
2021/06/29 07:12:14;;;;;;;;;;;;;;;24.69;100.00;98591.16;5009337;28;20289;-69
2021/06/29 07:14:39;;;;;;;;;;;;;;;25.45;100.00;98595.97;4993916;28;20007;-69
2021/06/29 07:17:05;;;;;;;;;;;;;;;25.24;100.00;98601.56;5028275;28;20012;-69
2021/06/29 07:19:30;;;;;;;;;;;;;;;24.58;100.00;98590.38;5028672;28;20263;-69
2021/06/29 07:21:56;;;;;;;;;;;;;;;24.85;100.00;98591.31;5027423;28;19917;-69
2021/06/29 07:24:21;;;;;;;;;;;;;;;24.23;100.00;98603.47;5009623;28;19913;-69
2021/06/29 07:26:46;;;;;;;;;;;;;;;24.91;100.00;98593.38;5028228;28;19913;-69
2021/06/29 07:29:12;;;;;;;;;;;;;;;25.30;100.00;98594.88;5010470;28;19917;-69
2021/06/29 07:31:37;;;;;;;;;;;;;;;25.33;100.00;98605.09;5010552;28;19916;-69
2021/06/29 07:34:03;;;;;;;;;;;;;;;24.99;100.00;98605.78;5028726;28;19928;-69
2021/06/29 07:36:28;;;;;;;;;;;;;;;26.07;96.11;98595.91;5010164;28;19928;-69
2021/06/29 07:38:55;;;;;;;;;;;;;;;26.43;92.81;98593.03;5027452;28;20366;-69
2021/06/29 07:41:21;;;;;;;;;;;;;;;25.92;92.88;98594.81;5011107;28;19945;-70
2021/06/29 07:43:46;;;;;;;;;;;;;;;26.21;91.55;98595.28;5010438;28;20531;-69
2021/06/29 07:46:11;;;;;;;;;;;;;;;25.96;92.36;98590.88;5010797;28;19917;-69
2021/06/29 07:48:37;;;;;;;;;;;;;;;25.90;94.40;98578.31;5011392;28;20289;-68
2021/06/29 07:51:04;;;;;;;;;;;;;;;26.11;92.06;98585.84;5005261;28;20513;-69
2021/06/29 07:53:29;;;;;;;;;;;;;;;25.58;93.83;98574.47;5006203;28;19913;-68
2021/06/29 07:55:54;;;;;;;;;;;;;;;26.54;90.00;98574.25;4992794;28;20924;-70
2021/06/29 07:58:20;;;;;;;;;;;;;;;26.62;86.28;98576.97;5023190;28;19917;-69
2021/06/29 08:00:45;;;;;;;;;;;;;;;26.86;87.00;98577.97;5007597;28;19925;-69
2021/06/29 08:03:11;;;;;;;;;;;;;;;26.74;85.79;98569.53;5024928;28;20422;-68
2021/06/29 08:05:36;;;;;;;;;;;;;;;26.61;85.43;98570.00;5007902;28;20270;-68
2021/06/29 08:08:01;;;;;;;;;;;;;;;26.81;84.77;98570.53;5005603;28;19917;-69
2021/06/29 08:10:27;;;;;;;;;;;;;;;26.60;84.62;98563.09;5026080;28;19921;-69
2021/06/29 08:12:53;;;;;;;;;;;;;;;27.07;86.02;98562.47;5007944;28;19921;-69
2021/06/29 08:15:19;;;;;;;;;;;;;;;27.13;83.78;98575.00;5007801;28;19920;-69
2021/06/29 08:17:46;;;;;;;;;;;;;;;27.64;81.09;98566.06;5008404;28;19913;-69
2021/06/29 08:20:12;;;;;;;;;;;;;;;26.87;86.93;98569.09;5003947;28;19917;-70
2021/06/29 08:22:37;;;;;;;;;;;;;;;27.01;87.74;98571.06;5007102;28;20182;-70
2021/06/29 08:25:04;;;;;;;;;;;;;;;27.81;84.94;98582.75;5018917;28;19917;-70
2021/06/29 08:27:30;;;;;;;;;;;;;;;28.55;79.31;98570.88;5007411;28;19917;-69
2021/06/29 08:29:57;;;;;;;;;;;;;;;27.95;82.77;98574.94;5006861;28;19987;-69
2021/06/29 08:32:22;;;;;;;;;;;;;;;28.31;79.39;98585.06;5025271;28;19945;-70
2021/06/29 08:34:48;;;;;;;;;;;;;;;28.80;76.14;98580.50;5023391;28;20016;-70
2021/06/29 08:37:13;;;;;;;;;;;;;;;28.97;74.04;98580.22;5018943;28;20007;-70
2021/06/29 08:39:39;;;;;;;;;;;;;;;28.14;76.95;98583.47;5022716;28;19926;-70
2021/06/29 08:42:05;;;;;;;;;;;;;;;28.42;75.17;98577.72;5024925;28;20329;-70
2021/06/29 08:44:30;;;;;;;;;;;;;;;27.79;79.74;98574.97;5024723;28;19920;-70
2021/06/29 08:46:57;;;;;;;;;;;;;;;27.47;80.75;98570.56;5008176;28;20263;-70
2021/06/29 08:49:22;;;;;;;;;;;;;;;28.69;80.78;98571.13;4991989;28;19944;-70
2021/06/29 08:51:50;;;;;;;;;;;;;;;26.26;84.00;98573.69;5025588;28;20524;-70
2021/06/29 08:54:17;;;;;;;;;;;;;;;25.08;90.94;98575.88;5007385;28;19919;-70
2021/06/29 08:56:43;;;;;;;;;;;;;;;26.28;87.84;98564.63;5008133;28;19928;-70
2021/06/29 08:59:08;;;;;;;;;;;;;;;26.65;85.01;98563.41;5023399;28;19921;-70
2021/06/29 09:01:33;;;;;;;;;;;;;;;26.53;86.66;98567.34;5024626;28;20313;-70
2021/06/29 09:03:59;;;;;;;;;;;;;;;26.74;83.86;98569.53;5006539;28;19917;-70
2021/06/29 09:06:28;;;;;;;;;;;;;;;25.80;91.04;98573.94;5007477;28;19913;-69
2021/06/29 09:08:54;;;;;;;;;;;;;;;26.17;88.51;98574.66;5007560;28;19968;-70
2021/06/29 09:11:19;;;;;;;;;;;;;;;26.73;85.49;98577.63;5006326;28;20264;-70
2021/06/29 09:14:03;;;;;;;;;;;;;;;27.17;82.81;98582.63;5023691;28;20430;-70
2021/06/29 09:16:28;;;;;;;;;;;;;;;27.21;85.04;98581.31;5025410;28;20291;-70
2021/06/29 09:18:54;;;;;;;;;;;;;;;26.50;83.83;98579.06;5025158;28;19921;-70
2021/06/29 09:21:19;;;;;;;;;;;;;;;28.02;79.84;98582.19;5024333;28;19918;-70
2021/06/29 09:23:50;;;;;;;;;;;;;;;26.63;84.38;98581.25;5007023;28;20384;-70
2021/06/29 09:26:16;;;;;;;;;;;;;;;26.46;89.33;98585.63;5020596;28;19925;-70
2021/06/29 09:28:51;;;;;;;;;;;;;;;28.10;78.26;98576.84;5012354;28;20378;-70
2021/06/29 09:31:17;;;;;;;;;;;;;;;27.22;81.17;98580.34;5026640;28;19924;-70
2021/06/29 09:33:44;;;;;;;;;;;;;;;26.68;83.82;98576.28;5011856;28;20032;-70
2021/06/29 09:36:14;;;;;;;;;;;;;;;25.77;84.16;98582.19;5017237;28;20386;-70
2021/06/29 09:38:42;;;;;;;;;;;;;;;27.63;80.85;98572.38;5012748;28;23539;-70
2021/06/29 09:41:14;;;;;;;;;;;;;;;27.20;79.34;98577.00;5011730;28;19925;-70
2021/06/29 09:43:43;;;;;;;;;;;;;;;29.37;72.04;98572.13;5013134;28;19972;-70
2021/06/29 09:46:10;;;;;;;;;;;;;;;28.98;67.97;98570.44;5011993;28;19999;-70
2021/06/29 09:48:39;;;;;;;;;;;;;;;29.91;66.49;98566.59;5011960;28;19914;-70
2021/06/29 09:51:08;;;;;;;;;;;;;;;27.83;70.52;98559.59;5012474;28;19947;-70
2021/06/29 09:53:38;;;;;;;;;;;;;;;28.67;68.66;98558.06;5012726;28;19917;-70
2021/06/29 09:56:05;;;;;;;;;;;;;;;30.22;68.83;98560.25;5012147;28;20399;-70
2021/06/29 09:58:31;;;;;;;;;;;;;;;28.62;68.39;98564.88;4997381;28;19995;-70
2021/06/29 10:00:58;;;;;;;;;;;;;;;29.27;68.74;98563.59;5031374;28;20020;-70
2021/06/29 10:03:28;;;;;;;;;;;;;;;29.48;65.64;98568.22;5014688;28;19971;-70
2021/06/29 10:05:54;;;;;;;;;;;;;;;27.81;77.34;98570.34;5013741;28;19917;-70
2021/06/29 10:08:26;;;;;;;;;;;;;;;27.29;84.99;98562.81;5014555;28;20012;-70
2021/06/29 10:11:05;;;;;;;;;;;;;;;27.56;77.06;98566.09;5012954;28;19930;-70
2021/06/29 10:13:35;;;;;;;;;;;;;;;27.29;77.65;98568.09;5013909;28;19924;-70
2021/06/29 10:16:01;;;;;;;;;;;;;;;28.38;70.68;98568.50;5013604;28;19912;-70
2021/06/29 10:18:28;;;;;;;;;;;;;;;28.17;70.62;98572.56;5031882;28;19979;-70
2021/06/29 10:20:57;;;;;;;;;;;;;;;27.18;73.68;98561.31;5013328;28;19949;-70
2021/06/29 10:23:22;;;;;;;;;;;;;;;26.78;83.25;98570.06;5014282;28;19917;-70
2021/06/29 10:25:47;;;;;;;;;;;;;;;26.91;82.48;98565.09;5013087;28;19967;-70
2021/06/29 10:28:13;;;;;;;;;;;;;;;26.57;86.41;98563.41;5013377;28;19932;-70
2021/06/29 10:30:39;;;;;;;;;;;;;;;27.93;77.30;98571.63;5013765;28;19921;-70
2021/06/29 10:33:05;;;;;;;;;;;;;;;27.74;76.59;98569.38;5013188;28;19971;-70
2021/06/29 10:35:30;;;;;;;;;;;;;;;27.85;68.71;98562.88;5013364;28;19959;-70
2021/06/29 10:37:56;;;;;;;;;;;;;;;28.18;84.99;98565.44;5009784;28;19917;-70
2021/06/29 10:40:21;;;;;;;;;;;;;;;27.28;79.98;98571.75;5010244;28;19971;-70
2021/06/29 10:42:47;;;;;;;;;;;;;;;26.49;86.67;98566.81;5009767;28;20021;-70
2021/06/29 10:45:13;;;;;;;;;;;;;;;26.37;87.45;98560.19;5010539;28;19964;-70
2021/06/29 10:47:39;;;;;;;;;;;;;;;28.19;76.37;98565.28;4993456;28;20389;-70
2021/06/29 10:50:07;;;;;;;;;;;;;;;28.69;67.90;98564.03;4994451;28;19913;-70
2021/06/29 10:52:34;;;;;;;;;;;;;;;26.97;79.74;98567.09;5029598;28;20401;-70
2021/06/29 10:55:17;;;;;;;;;;;;;;;29.79;67.88;98560.13;5028230;28;19913;-70
2021/06/29 10:57:48;;;;;;;;;;;;;;;30.32;58.55;98557.34;5027915;28;19921;-70
2021/06/29 11:00:16;;;;;;;;;;;;;;;30.19;63.61;98552.66;5009596;28;19921;-70
2021/06/29 11:02:42;;;;;;;;;;;;;;;29.48;76.51;98561.06;5027638;28;20008;-70
2021/06/29 11:05:08;;;;;;;;;;;;;;;27.86;87.54;98548.69;5027784;28;20020;-70
2021/06/29 11:07:43;;;;;;;;;;;;;;;30.56;69.69;98542.88;5025569;28;19921;-70
2021/06/29 11:10:10;;;;;;;;;;;;;;;30.89;56.18;98539.75;5008935;28;19917;-70
2021/06/29 11:12:49;;;;;;;;;;;;;;;31.48;56.05;98539.44;5008887;28;19925;-70
2021/06/29 11:15:15;;;;;;;;;;;;;;;28.71;67.18;98543.44;5009681;28;19924;-70
2021/06/29 11:17:52;;;;;;;;;;;;;;;29.89;67.39;98534.09;5010300;28;20574;-70
2021/06/29 11:20:25;;;;;;;;;;;;;;;30.41;57.78;98535.78;5010088;28;19917;-70
2021/06/29 11:22:55;;;;;;;;;;;;;;;28.36;61.91;98535.03;5009365;28;19921;-70
2021/06/29 11:25:31;;;;;;;;;;;;;;;29.14;65.34;98530.53;5009266;28;19917;-70
2021/06/29 11:28:03;;;;;;;;;;;;;;;32.57;57.91;98529.88;5007135;28;19921;-70
2021/06/29 11:30:47;;;;;;;;;;;;;;;29.57;56.30;98533.44;5010346;28;20521;-70
2021/06/29 11:33:30;;;;;;;;;;;;;;;29.02;59.76;98536.44;5026117;28;19921;-70
2021/06/29 11:35:56;;;;;;;;;;;;;;;28.92;72.82;98528.72;5024089;28;19927;-70
2021/06/29 11:38:31;;;;;;;;;;;;;;;30.46;64.43;98521.13;5007260;28;19920;-70
2021/06/29 11:40:56;;;;;;;;;;;;;;;26.97;76.63;98522.16;5024161;28;20389;-70
2021/06/29 11:43:23;;;;;;;;;;;;;;;27.74;67.41;98516.44;5023734;28;19920;-70
2021/06/29 11:45:49;;;;;;;;;;;;;;;28.35;75.09;98528.09;5011788;28;19913;-70
2021/06/29 11:48:33;;;;;;;;;;;;;;;26.79;66.49;98527.59;5013557;28;19915;-70
2021/06/29 11:50:58;;;;;;;;;;;;;;;27.10;70.50;98519.03;5027430;28;19913;-70
2021/06/29 11:53:24;;;;;;;;;;;;;;;26.14;77.13;98516.88;5014812;28;20471;-70
2021/06/29 11:55:49;;;;;;;;;;;;;;;27.64;74.25;98516.63;5028922;28;19919;-70
2021/06/29 11:58:15;;;;;;;;;;;;;;;26.82;65.27;98513.25;5031261;28;20370;-70
2021/06/29 12:00:40;;;;;;;;;;;;;;;26.63;79.42;98504.66;5027877;28;19940;-70
2021/06/29 12:03:10;;;;;;;;;;;;;;;26.11;70.40;98512.75;5022247;28;19917;-68
2021/06/29 12:05:36;;;;;;;;;;;;;;;28.42;70.25;98506.19;5003872;28;20282;-70
2021/06/29 12:08:04;;;;;;;;;;;;;;;28.29;61.03;98506.78;5012892;28;19917;-70
2021/06/29 12:10:31;;;;;;;;;;;;;;;30.83;66.51;98501.41;5030314;28;19913;-70
2021/06/29 12:13:05;;;;;;;;;;;;;;;29.45;55.83;98502.25;5014269;28;20025;-70
2021/06/29 12:15:32;;;;;;;;;;;;;;;29.11;61.65;98496.44;5032088;28;19913;-70
2021/06/29 12:17:57;;;;;;;;;;;;;;;31.37;47.93;98487.53;5031235;28;19917;-70
2021/06/29 12:20:26;;;;;;;;;;;;;;;30.05;64.30;98465.88;5013121;28;20465;-70
2021/06/29 12:22:52;;;;;;;;;;;;;;;28.85;53.83;98486.22;4997303;28;19964;-70
2021/06/29 12:25:22;;;;;;;;;;;;;;;30.92;52.12;98476.38;4997580;28;19952;-70
2021/06/29 12:27:52;;;;;;;;;;;;;;;28.26;65.70;98486.78;5014107;28;19918;-70
2021/06/29 12:30:19;;;;;;;;;;;;;;;27.31;72.37;98477.03;5013583;28;19913;-70
2021/06/29 12:32:44;;;;;;;;;;;;;;;28.09;70.64;98469.34;5014112;28;19917;-70
2021/06/29 12:35:10;;;;;;;;;;;;;;;28.38;72.06;98470.50;5013496;28;20381;-70
2021/06/29 12:37:51;;;;;;;;;;;;;;;27.87;59.61;98474.41;5013872;28;20285;-70
2021/06/29 12:40:16;;;;;;;;;;;;;;;28.83;61.71;98460.88;5030916;28;19949;-70